Airfield :
LOGIN :

Register | Disclaimer

   EN    FR    IT 

 










Legend :    VFR   Marginal VFR   IFR   Intensive IFR   Very Intensive IFR
Visi :
Ceiling :
>= 8 km
>= 3000ft
5 to 8 km
1000 to 3000 ft
1500m to 5 km
500 to 1000 ft
800 to 1500m
200 to 500 ft
< 800m
< 200 ft
Symbols :   Thunderstorms  Fog  Heavy snow  Heavy precipitations  Wind > 20 kt
SIGMETs :     Misc.  Thunderstorms  Icing  Turbulence  Mountain Waves  Volcanic Ashes






- Airport Elevation : 26 ft
- IATA code : GLA


EGPF - Glasgow

CURRENT METAR :
  • 250720Z AUTO VRB02KT 9999 NCD 12/09 Q1032

EXPIRED METARs :
  • 250650Z AUTO 06003KT 9999 NCD 10/09 Q1032
  • 250620Z AUTO 07003KT 9999 SCT037 08/08 Q1032
  • 250550Z 04002KT 9999 FEW014 SCT040 07/07 Q1032
  • 250520Z VRB01KT 9999 R23/1400 MIFG FEW018 05/05 Q1032
  • 250450Z 00000KT 0900 R23/0250 FG FEW008 03/03 Q1031

TAF TAF EGPF
Valid from the 25 at 06:00 until the 26 at 06:00 UTC


250455Z 2506/2606 VRB03KT 9999 SCT030
PROB30 2506/2507 0300 FG VV///
BECMG 2508/2511 22010KT
PROB30
TEMPO 2511/2520 23015G25KT
TEMPO 2517/2604 6000 RA
PROB40
TEMPO 2521/2604 3000 RADZ BKN008
BECMG 2603/2606 28007KT
ATIS : +44 141 887 7449



MET'MAP, your aeronautical weather chart ! - Copyright ORBIFLY December 2007 - Disclaimer

ORBIFLY MET'MAP TEAM :

Programming & Development : Alexandra Zaïnal
Concept & original design : Baudouin d'Aumeries
Assistance for programming : Marc-Olivier Méhu
Technical & hardware support : Manuel Goepfert

Contact : metmap@orbifly.com




SOURCES & CREDITS :

   NOAA